createdAt,value
2022-12-03T00:00:12.742Z,60.32
2022-12-03T00:03:01.303Z,60.05
2022-12-03T00:05:29.615Z,59.78
2022-12-03T00:07:57.806Z,60.26
2022-12-03T00:10:25.660Z,60.23
2022-12-03T00:12:53.558Z,59.97
2022-12-03T00:15:21.355Z,60.00
2022-12-03T00:17:49.120Z,59.98
2022-12-03T00:20:20.702Z,60.19
2022-12-03T00:22:48.769Z,60.47
2022-12-03T00:25:17.149Z,60.53
2022-12-03T00:27:45.115Z,60.80
2022-12-03T00:30:14.312Z,60.88
2022-12-03T00:32:43.106Z,60.60
2022-12-03T00:35:11.071Z,60.36
2022-12-03T00:37:38.834Z,60.19
2022-12-03T00:40:07.849Z,60.12
2022-12-03T00:42:35.820Z,60.05
2022-12-03T00:45:05.707Z,60.10
2022-12-03T00:47:33.588Z,59.98
2022-12-03T00:50:01.437Z,60.30
2022-12-03T00:52:29.507Z,60.35
2022-12-03T00:54:57.369Z,60.22
2022-12-03T00:57:25.336Z,60.26
2022-12-03T00:59:53.410Z,60.52
2022-12-03T01:02:21.642Z,60.57
2022-12-03T01:04:49.924Z,60.90
2022-12-03T01:07:17.865Z,61.07
2022-12-03T01:09:45.791Z,60.36
2022-12-03T01:12:13.878Z,60.62
2022-12-03T01:14:41.830Z,60.79
2022-12-03T01:17:09.695Z,60.79
2022-12-03T01:19:37.674Z,60.35
2022-12-03T01:22:05.446Z,60.40
2022-12-03T01:24:35.105Z,60.80
2022-12-03T01:27:03.107Z,61.06
2022-12-03T01:29:31.070Z,61.18
2022-12-03T01:32:17.472Z,60.67
2022-12-03T01:34:51.741Z,60.45
2022-12-03T01:37:22.866Z,60.51
2022-12-03T01:39:51.103Z,60.42
2022-12-03T01:42:29.208Z,60.21
2022-12-03T01:44:58.402Z,60.39
2022-12-03T01:47:36.840Z,60.70
2022-12-03T01:50:30.445Z,60.63
2022-12-03T01:53:00.315Z,60.80
2022-12-03T01:55:28.272Z,60.59
2022-12-03T01:57:59.097Z,60.66
2022-12-03T02:00:27.586Z,60.65
2022-12-03T02:02:58.781Z,60.97
2022-12-03T02:05:33.698Z,60.85
2022-12-03T02:08:01.695Z,61.26
2022-12-03T02:10:33.945Z,61.21
2022-12-03T02:13:07.934Z,61.03
2022-12-03T02:15:39.374Z,61.01
2022-12-03T02:18:08.445Z,61.34
2022-12-03T02:20:44.503Z,61.16
2022-12-03T02:23:18.696Z,61.14
2022-12-03T02:25:46.685Z,61.22
2022-12-03T02:28:14.447Z,60.98
2022-12-03T02:30:42.623Z,60.97
2022-12-03T02:33:10.554Z,61.23
2022-12-03T02:35:38.453Z,61.36
2022-12-03T02:38:16.052Z,61.23
2022-12-03T02:40:45.142Z,61.25
2022-12-03T02:43:14.953Z,61.39
2022-12-03T02:45:44.771Z,61.48
2022-12-03T02:48:20.547Z,61.24
2022-12-03T02:50:53.938Z,61.26
2022-12-03T02:53:26.812Z,61.69
2022-12-03T02:55:55.701Z,61.96
2022-12-03T02:58:23.650Z,61.87
2022-12-03T03:00:52.023Z,61.96
2022-12-03T03:03:20.050Z,62.06
2022-12-03T03:05:47.856Z,61.89
2022-12-03T03:08:16.557Z,61.58
2022-12-03T03:10:44.563Z,61.66
2022-12-03T03:13:17.466Z,61.53
2022-12-03T03:15:45.466Z,61.13
2022-12-03T03:18:13.705Z,60.85
2022-12-03T03:20:41.509Z,61.10
2022-12-03T03:23:12.440Z,61.24
2022-12-03T03:25:43.941Z,60.77
2022-12-03T03:28:11.857Z,60.75
2022-12-03T03:30:39.986Z,60.82
2022-12-03T03:33:07.781Z,60.89
2022-12-03T03:35:36.685Z,61.21
2022-12-03T03:38:04.490Z,61.24
2022-12-03T03:40:32.424Z,61.30
2022-12-03T03:43:00.485Z,61.12
2022-12-03T03:45:29.569Z,61.19
2022-12-03T03:47:58.364Z,61.05
2022-12-03T03:50:28.181Z,60.98
2022-12-03T03:52:56.350Z,61.06
2022-12-03T03:55:24.218Z,61.19
2022-12-03T03:57:52.631Z,60.96
2022-12-03T04:00:20.563Z,60.87
2022-12-03T04:02:48.634Z,60.83
2022-12-03T04:05:20.926Z,61.34
2022-12-03T04:07:48.747Z,61.42
2022-12-03T04:10:35.769Z,61.25
2022-12-03T04:13:04.365Z,61.42
2022-12-03T04:15:32.226Z,61.72
2022-12-03T04:18:18.729Z,61.29
2022-12-03T04:20:46.595Z,61.12
2022-12-03T04:23:14.665Z,61.33
2022-12-03T04:26:01.268Z,61.44
2022-12-03T04:28:47.976Z,61.66
2022-12-03T04:31:34.683Z,61.40
2022-12-03T04:34:21.495Z,61.70
2022-12-03T04:36:49.564Z,61.52
2022-12-03T04:39:17.634Z,61.34
2022-12-03T04:41:45.419Z,61.39
2022-12-03T04:44:32.205Z,61.42
2022-12-03T04:47:01.197Z,61.14
2022-12-03T04:49:29.064Z,61.53
2022-12-03T04:51:56.928Z,60.94
2022-12-03T04:54:24.895Z,61.20
2022-12-03T04:56:52.763Z,61.48
2022-12-03T04:59:20.834Z,61.65
2022-12-03T05:01:48.947Z,61.74
2022-12-03T05:04:16.973Z,61.72
2022-12-03T05:06:45.639Z,61.90
2022-12-03T05:09:13.727Z,61.72
2022-12-03T05:11:42.016Z,61.52
2022-12-03T05:14:10.381Z,61.26
2022-12-03T05:16:38.740Z,61.22
2022-12-03T05:19:07.553Z,61.72
2022-12-03T05:21:35.622Z,61.76
2022-12-03T05:24:04.203Z,61.69
2022-12-03T05:26:31.996Z,61.54
2022-12-03T05:28:59.929Z,61.47
2022-12-03T05:31:27.765Z,61.41
2022-12-03T05:33:55.683Z,61.09
2022-12-03T05:36:25.476Z,60.73
2022-12-03T05:38:53.336Z,60.76
2022-12-03T05:41:39.737Z,60.40
2022-12-03T05:44:07.484Z,60.30
2022-12-03T05:46:35.966Z,60.52
2022-12-03T05:49:04.050Z,60.90
2022-12-03T05:51:31.824Z,60.98
2022-12-03T05:53:59.678Z,60.80
2022-12-03T05:56:27.484Z,60.84
2022-12-03T05:58:55.408Z,60.77
2022-12-03T06:01:23.210Z,60.53
2022-12-03T06:03:53.146Z,60.94
2022-12-03T06:06:21.407Z,60.91
2022-12-03T06:08:51.069Z,60.80
2022-12-03T06:11:18.868Z,60.99
2022-12-03T06:13:46.700Z,61.16
2022-12-03T06:16:14.649Z,61.37
2022-12-03T06:18:42.638Z,61.35
2022-12-03T06:21:10.504Z,61.39
2022-12-03T06:23:44.672Z,61.14
2022-12-03T06:26:12.687Z,61.18
2022-12-03T06:28:41.469Z,61.09
2022-12-03T06:31:09.504Z,61.20
2022-12-03T06:33:37.321Z,61.09
2022-12-03T06:36:06.158Z,61.04
2022-12-03T06:38:34.062Z,61.04
2022-12-03T06:41:02.024Z,60.72
2022-12-03T06:43:31.060Z,60.50
2022-12-03T06:45:59.071Z,60.85
2022-12-03T06:48:27.156Z,61.22
2022-12-03T06:50:55.132Z,61.26
2022-12-03T06:53:23.154Z,61.10
2022-12-03T06:55:50.958Z,60.96
2022-12-03T06:58:18.827Z,61.12
2022-12-03T07:00:46.805Z,61.21
2022-12-03T07:03:14.696Z,61.17
2022-12-03T07:05:42.625Z,60.90
2022-12-03T07:08:10.574Z,61.09
2022-12-03T07:10:38.561Z,61.38
2022-12-03T07:13:06.324Z,61.49
2022-12-03T07:15:34.295Z,61.41
2022-12-03T07:18:02.162Z,61.45
2022-12-03T07:20:29.935Z,61.73
2022-12-03T07:22:58.285Z,61.72
2022-12-03T07:25:26.162Z,61.74
2022-12-03T07:27:54.028Z,61.60
2022-12-03T07:30:22.203Z,61.23
2022-12-03T07:32:50.373Z,61.42
2022-12-03T07:35:18.193Z,61.23
2022-12-03T07:37:46.106Z,60.91
2022-12-03T07:40:14.176Z,60.73
2022-12-03T07:42:42.144Z,61.10
2022-12-03T07:45:11.134Z,61.45
2022-12-03T07:47:38.878Z,61.60
2022-12-03T07:50:07.751Z,61.11
2022-12-03T07:52:35.654Z,61.00
2022-12-03T07:55:03.733Z,61.09
2022-12-03T07:57:31.704Z,61.13
2022-12-03T07:59:59.558Z,60.88
2022-12-03T08:02:27.479Z,61.14
2022-12-03T08:04:55.886Z,61.01
2022-12-03T08:07:24.379Z,61.11
2022-12-03T08:09:52.412Z,61.44
2022-12-03T08:12:25.574Z,61.18
2022-12-03T08:14:53.597Z,60.77
2022-12-03T08:17:21.822Z,60.55
2022-12-03T08:19:50.859Z,60.72
2022-12-03T08:22:18.743Z,61.27
2022-12-03T08:24:46.609Z,61.01
2022-12-03T08:27:18.135Z,61.10
2022-12-03T08:29:46.236Z,60.56
2022-12-03T08:32:14.121Z,60.50
2022-12-03T08:34:43.908Z,60.85
2022-12-03T08:37:19.453Z,61.06
2022-12-03T08:39:51.620Z,61.45
2022-12-03T08:42:43.246Z,61.11
2022-12-03T08:45:39.836Z,61.71
2022-12-03T08:48:36.901Z,61.45
2022-12-03T08:51:34.494Z,61.90
2022-12-03T08:54:13.148Z,62.14
2022-12-03T08:56:41.136Z,62.19
2022-12-03T08:59:45.300Z,62.45
2022-12-03T09:13:09.442Z,61.27
2022-12-03T09:15:37.374Z,61.17
2022-12-03T09:18:05.284Z,60.98
2022-12-03T09:20:33.459Z,60.86
2022-12-03T09:23:01.313Z,61.29
2022-12-03T09:25:29.158Z,61.82
2022-12-03T09:27:56.908Z,61.85
2022-12-03T09:30:24.703Z,61.37
2022-12-03T09:32:52.636Z,60.63
2022-12-03T09:35:20.440Z,60.72
2022-12-03T09:37:48.292Z,60.81
2022-12-03T09:40:16.148Z,60.67
2022-12-03T09:42:44.138Z,60.63
2022-12-03T09:45:13.228Z,60.27
2022-12-03T09:47:47.338Z,59.98
2022-12-03T09:50:19.417Z,59.73
2022-12-03T09:52:47.578Z,59.78
2022-12-03T09:55:22.187Z,59.82
2022-12-03T09:57:54.888Z,60.04
2022-12-03T10:00:26.023Z,60.01
2022-12-03T10:02:59.214Z,60.08
2022-12-03T10:05:26.995Z,60.49
2022-12-03T10:07:54.824Z,60.40
2022-12-03T10:10:23.943Z,60.48
2022-12-03T10:12:52.213Z,60.77
2022-12-03T10:15:22.566Z,60.99
2022-12-03T10:17:53.062Z,60.91
2022-12-03T10:20:22.898Z,61.57
2022-12-03T10:22:50.848Z,61.79
2022-12-03T10:25:21.447Z,62.27
2022-12-03T10:28:01.427Z,62.02
2022-12-03T10:38:24.647Z,61.59
2022-12-03T10:40:52.797Z,61.54
2022-12-03T10:43:25.161Z,61.37
2022-12-03T10:46:03.527Z,61.76
2022-12-03T10:48:32.194Z,61.90
2022-12-03T10:51:11.914Z,61.87
2022-12-03T10:53:40.183Z,60.85
2022-12-03T10:56:08.568Z,60.42
2022-12-03T10:58:45.852Z,60.08
2022-12-03T11:01:22.015Z,58.82
2022-12-03T11:03:52.342Z,60.25
2022-12-03T11:06:22.247Z,62.86
2022-12-03T11:10:06.268Z,66.65
2022-12-03T11:13:45.537Z,65.15
2022-12-03T11:16:37.058Z,64.82
2022-12-03T11:19:45.162Z,64.73
2022-12-03T11:22:27.391Z,63.69
2022-12-03T11:25:27.391Z,62.73
2022-12-03T11:28:10.710Z,63.20
2022-12-03T11:30:54.188Z,62.23
2022-12-03T11:37:10.869Z,60.60
2022-12-03T11:40:01.981Z,60.45
2022-12-03T11:45:53.541Z,60.74
2022-12-03T11:48:21.590Z,60.65
2022-12-03T11:50:53.454Z,60.36
2022-12-03T11:58:01.073Z,60.16
2022-12-03T12:00:31.039Z,60.86
2022-12-03T12:06:43.515Z,59.81
2022-12-03T12:09:11.483Z,60.32
2022-12-03T12:11:43.994Z,59.89
2022-12-03T12:14:12.868Z,60.39
2022-12-03T12:16:55.410Z,60.24
2022-12-03T12:22:38.341Z,60.62
2022-12-03T12:25:41.486Z,60.42
2022-12-03T12:38:43.209Z,60.04
2022-12-03T12:41:11.193Z,60.30
2022-12-03T12:43:49.507Z,60.62
2022-12-03T12:46:46.791Z,60.13
2022-12-03T12:49:14.873Z,59.85
2022-12-03T12:54:48.846Z,61.38
2022-12-03T12:57:21.825Z,61.34
2022-12-03T12:59:50.797Z,61.23
2022-12-03T13:02:30.527Z,61.10
2022-12-03T13:18:48.685Z,60.96
2022-12-03T13:28:24.481Z,61.90
2022-12-03T13:31:01.380Z,62.39
2022-12-03T13:33:32.190Z,62.37
2022-12-03T13:36:09.171Z,62.26
2022-12-03T13:38:37.240Z,61.95
2022-12-03T13:41:10.323Z,61.92
2022-12-03T13:43:44.510Z,61.79
2022-12-03T13:49:36.392Z,61.25
2022-12-03T13:52:16.299Z,61.55
2022-12-03T13:54:55.882Z,61.93
2022-12-03T13:57:33.266Z,62.14
2022-12-03T14:00:01.202Z,62.13
2022-12-03T14:02:29.308Z,62.16
2022-12-03T14:05:00.856Z,61.95
2022-12-03T14:07:29.267Z,62.15
2022-12-03T14:09:57.564Z,62.04
2022-12-03T14:12:25.834Z,62.10
2022-12-03T14:15:11.084Z,62.15
2022-12-03T14:17:39.024Z,62.15
2022-12-03T14:20:08.323Z,61.97
2022-12-03T14:25:27.617Z,61.75
2022-12-03T14:27:55.469Z,61.82
2022-12-03T14:30:23.459Z,62.06
2022-12-03T14:33:00.827Z,62.29
2022-12-03T14:35:30.994Z,62.67
2022-12-03T14:37:59.122Z,62.97
2022-12-03T14:40:29.072Z,63.02
2022-12-03T14:42:59.646Z,63.24
2022-12-03T14:45:38.132Z,63.08
2022-12-03T14:48:11.680Z,63.22
2022-12-03T14:50:39.464Z,63.28
2022-12-03T14:53:14.987Z,63.08
2022-12-03T14:56:05.963Z,62.92
2022-12-03T14:58:39.558Z,63.43
2022-12-03T15:01:07.595Z,63.13
2022-12-03T15:03:35.530Z,63.78
2022-12-03T15:06:03.406Z,63.85
2022-12-03T15:08:32.694Z,63.89
2022-12-03T15:11:03.309Z,63.70
2022-12-03T15:13:51.261Z,63.56
2022-12-03T15:16:19.395Z,63.68
2022-12-03T15:20:09.797Z,63.30
2022-12-03T15:22:37.746Z,63.49
2022-12-03T15:25:07.746Z,63.90
2022-12-03T15:27:35.988Z,64.22
2022-12-03T15:30:07.590Z,64.20
2022-12-03T15:32:38.784Z,64.35
2022-12-03T15:35:17.710Z,64.44
2022-12-03T15:37:46.190Z,64.45
2022-12-03T15:40:14.311Z,64.42
2022-12-03T15:42:42.439Z,64.05
2022-12-03T15:45:14.946Z,64.00
2022-12-03T15:47:43.700Z,64.82
2022-12-03T15:50:13.618Z,65.08
2022-12-03T15:52:41.704Z,64.90
2022-12-03T15:55:10.363Z,64.85
2022-12-03T15:57:38.455Z,64.63
2022-12-03T16:00:16.622Z,64.16
2022-12-03T16:02:52.491Z,64.38
2022-12-03T16:05:32.650Z,64.55
2022-12-03T16:08:00.831Z,64.53
2022-12-03T16:13:17.388Z,63.98
2022-12-03T16:15:45.442Z,63.55
2022-12-03T16:18:13.376Z,63.77
2022-12-03T16:20:47.754Z,63.69
2022-12-03T16:23:34.809Z,63.63
2022-12-03T16:26:02.880Z,63.94
2022-12-03T16:28:37.031Z,64.02
2022-12-03T16:31:06.256Z,63.92
2022-12-03T16:33:34.365Z,63.87
2022-12-03T16:36:24.550Z,63.79
2022-12-03T16:39:37.831Z,63.73
2022-12-03T16:45:58.911Z,63.39
2022-12-03T16:48:27.191Z,63.22
2022-12-03T16:50:55.050Z,63.48
2022-12-03T16:54:09.306Z,63.77
2022-12-03T17:00:21.964Z,63.75
2022-12-03T17:02:50.091Z,63.83
2022-12-03T17:05:18.102Z,63.53
2022-12-03T17:07:45.944Z,63.67
2022-12-03T17:10:13.950Z,64.14
2022-12-03T17:13:08.337Z,64.31
2022-12-03T17:15:29.934Z,64.42
2022-12-03T17:17:58.604Z,64.11
2022-12-03T17:20:26.570Z,63.95
2022-12-03T17:22:54.644Z,64.28
2022-12-03T17:25:22.427Z,64.34
2022-12-03T17:27:50.271Z,64.80
2022-12-03T17:30:18.646Z,65.02
2022-12-03T17:32:46.578Z,65.15
2022-12-03T17:35:14.481Z,65.23
2022-12-03T17:37:42.346Z,65.13
2022-12-03T17:40:12.203Z,65.24
2022-12-03T17:42:40.127Z,65.10
2022-12-03T17:45:08.868Z,64.89
2022-12-03T17:47:36.784Z,64.61
2022-12-03T17:50:05.802Z,64.67
2022-12-03T17:52:33.615Z,64.88
2022-12-03T17:55:11.299Z,64.80
2022-12-03T17:57:42.315Z,64.65
2022-12-03T18:00:11.585Z,64.30
2022-12-03T18:02:43.120Z,64.65
2022-12-03T18:05:11.020Z,64.84
2022-12-03T18:07:39.032Z,65.08
2022-12-03T18:10:08.042Z,64.91
2022-12-03T18:12:35.983Z,64.89
2022-12-03T18:15:04.600Z,64.83
2022-12-03T18:17:32.566Z,64.48
2022-12-03T18:20:00.533Z,64.74
2022-12-03T18:22:28.501Z,64.57
2022-12-03T18:24:56.878Z,64.23
2022-12-03T18:27:24.855Z,64.09
2022-12-03T18:29:53.185Z,63.56
2022-12-03T18:32:28.900Z,63.35
2022-12-03T18:34:57.976Z,63.36
2022-12-03T18:37:27.443Z,63.10
2022-12-03T18:39:55.896Z,63.15
2022-12-03T18:42:24.021Z,63.13
2022-12-03T18:44:53.861Z,63.19
2022-12-03T18:47:24.435Z,63.26
2022-12-03T18:49:53.474Z,63.22
2022-12-03T18:52:23.178Z,63.18
2022-12-03T18:54:51.043Z,63.58
2022-12-03T18:57:18.949Z,63.74
2022-12-03T18:59:47.068Z,64.08
2022-12-03T19:02:38.513Z,64.54
2022-12-03T19:05:06.498Z,64.04
2022-12-03T19:07:34.461Z,63.94
2022-12-03T19:10:02.404Z,63.90
2022-12-03T19:12:31.410Z,64.04
2022-12-03T19:14:59.450Z,64.25
2022-12-03T19:17:27.826Z,64.09
2022-12-03T19:19:56.068Z,63.89
2022-12-03T19:22:24.327Z,63.78
2022-12-03T19:24:52.345Z,63.78
2022-12-03T19:27:20.359Z,63.66
2022-12-03T19:29:48.936Z,63.65
2022-12-03T19:32:17.684Z,63.59
2022-12-03T19:34:45.868Z,63.37
2022-12-03T19:37:14.543Z,63.27
2022-12-03T19:39:43.250Z,63.35
2022-12-03T19:42:11.294Z,63.26
2022-12-03T19:44:39.879Z,63.09
2022-12-03T19:47:07.741Z,63.06
2022-12-03T19:49:35.554Z,62.62
2022-12-03T19:52:03.633Z,62.69
2022-12-03T19:54:31.443Z,62.82
2022-12-03T19:56:59.308Z,62.79
2022-12-03T19:59:27.172Z,62.69
2022-12-03T20:01:55.415Z,62.87
2022-12-03T20:04:23.416Z,63.16
2022-12-03T20:06:51.487Z,63.60
2022-12-03T20:09:20.761Z,63.47
2022-12-03T20:11:50.646Z,63.48
2022-12-03T20:14:18.640Z,63.63
2022-12-03T20:16:46.606Z,63.44
2022-12-03T20:19:16.830Z,63.86
2022-12-03T20:21:44.842Z,63.88
2022-12-03T20:24:15.477Z,63.85
2022-12-03T20:26:43.625Z,64.23
2022-12-03T20:29:12.090Z,64.12
2022-12-03T20:31:40.262Z,64.11
2022-12-03T20:34:08.384Z,64.18
2022-12-03T20:36:36.623Z,64.16
2022-12-03T20:39:06.268Z,64.22
2022-12-03T20:41:35.880Z,64.56
2022-12-03T20:44:06.430Z,65.03
2022-12-03T20:46:34.956Z,64.74
2022-12-03T20:49:03.639Z,64.44
2022-12-03T20:51:31.905Z,64.26
2022-12-03T20:54:00.288Z,64.55
2022-12-03T20:56:34.451Z,64.96
2022-12-03T20:59:07.499Z,65.75
2022-12-03T21:01:36.419Z,65.94
2022-12-03T21:04:04.960Z,65.57
2022-12-03T21:06:34.564Z,65.34
2022-12-03T21:09:04.622Z,65.59
2022-12-03T21:11:34.008Z,65.15
2022-12-03T21:14:02.255Z,65.00
2022-12-03T21:17:06.566Z,64.90
2022-12-03T21:19:21.233Z,65.64
2022-12-03T21:21:49.216Z,65.64
2022-12-03T21:24:17.083Z,65.62
2022-12-03T21:26:45.030Z,65.44
2022-12-03T21:29:13.049Z,65.34
2022-12-03T21:31:41.278Z,65.22
2022-12-03T21:34:09.073Z,65.04
2022-12-03T21:36:37.006Z,65.14
2022-12-03T21:39:05.493Z,64.92
2022-12-03T21:41:35.300Z,64.53
2022-12-03T21:44:03.473Z,64.49
2022-12-03T21:47:11.575Z,64.38
2022-12-03T21:49:20.423Z,64.83
2022-12-03T21:51:48.782Z,65.43
2022-12-03T21:54:16.777Z,65.98
2022-12-03T21:56:44.710Z,66.06
2022-12-03T21:59:12.678Z,66.14
2022-12-03T22:01:44.170Z,66.03
2022-12-03T22:04:14.963Z,65.70
2022-12-03T22:06:42.797Z,65.50
2022-12-03T22:09:10.700Z,65.19
2022-12-03T22:11:38.983Z,64.86
2022-12-03T22:14:08.386Z,64.84
2022-12-03T22:16:36.302Z,65.47
2022-12-03T22:19:04.311Z,66.01
2022-12-03T22:21:32.144Z,66.07
2022-12-03T22:23:59.972Z,65.82
2022-12-03T22:26:27.903Z,65.41
2022-12-03T22:28:55.872Z,65.50
2022-12-03T22:31:23.800Z,65.40
2022-12-03T22:33:51.908Z,65.07
2022-12-03T22:36:21.611Z,65.07
2022-12-03T22:38:51.635Z,65.00
2022-12-03T22:41:19.805Z,65.22
2022-12-03T22:43:47.979Z,65.49
2022-12-03T22:46:16.229Z,65.60
2022-12-03T22:48:45.454Z,64.81
2022-12-03T22:51:21.507Z,64.88
2022-12-03T22:53:59.204Z,64.87
2022-12-03T22:56:28.726Z,64.64
2022-12-03T22:58:56.781Z,65.31
2022-12-03T23:01:28.254Z,65.90
2022-12-03T23:03:56.378Z,65.55
2022-12-03T23:06:24.586Z,65.44
2022-12-03T23:08:52.653Z,65.33
2022-12-03T23:11:20.721Z,65.30
2022-12-03T23:13:48.599Z,65.00
2022-12-03T23:16:24.155Z,64.79
2022-12-03T23:18:52.194Z,65.15
2022-12-03T23:21:28.972Z,64.92
2022-12-03T23:24:02.466Z,64.90
2022-12-03T23:26:30.741Z,65.05
2022-12-03T23:28:58.608Z,65.09
2022-12-03T23:31:29.828Z,65.80
2022-12-03T23:33:58.274Z,65.72
2022-12-03T23:36:28.053Z,65.82
2022-12-03T23:38:55.934Z,65.99
2022-12-03T23:41:24.514Z,65.94
2022-12-03T23:43:52.894Z,65.53
2022-12-03T23:46:23.693Z,65.28
2022-12-03T23:48:51.669Z,65.64
2022-12-03T23:51:23.310Z,65.64
2022-12-03T23:53:53.203Z,65.96
2022-12-03T23:56:24.442Z,65.93
2022-12-03T23:58:52.349Z,65.74
